Time;durP1;ratioP1;P1;durP2;ratioP2;P2;SDS_P1;SDS_P2;PMS_P1;PMS_P2;Temp;Humidity;BMP_temperature;BMP_pressure;BME280_temperature;BME280_humidity;BME280_pressure;Samples;Min_cycle;Max_cycle;Signal;HPM_P1;HPM_P2
2022/08/15 00:00:40;;;;;;;;;28.33;25.67;;;;;23.25;69.70;100285.98;110541;1264;14178;-48
2022/08/15 00:03:08;;;;;;;;;31.50;26.50;;;;;23.32;69.63;100285.52;110587;1264;13212;-48
2022/08/15 00:05:35;;;;;;;;;26.00;23.00;;;;;23.34;69.16;100286.02;110543;1265;14829;-49
2022/08/15 00:08:03;;;;;;;;;35.00;29.00;;;;;23.16;69.57;100286.11;110532;1265;13649;-47
2022/08/15 00:10:31;;;;;;;;;26.00;22.67;;;;;23.02;69.77;100289.70;110528;1264;17330;-48
2022/08/15 00:13:00;;;;;;;;;29.50;25.00;;;;;22.82;70.39;100289.99;110544;1264;14756;-48
2022/08/15 00:15:27;;;;;;;;;28.67;25.67;;;;;22.81;70.62;100295.20;110578;1264;13177;-49
2022/08/15 00:17:55;;;;;;;;;26.00;25.00;;;;;23.00;70.11;100293.73;110521;1264;14244;-47
2022/08/15 00:20:22;;;;;;;;;26.00;23.67;;;;;22.92;70.07;100300.68;110537;1264;14736;-49
2022/08/15 00:22:50;;;;;;;;;24.67;22.33;;;;;22.80;70.49;100295.37;110535;1264;14315;-50
2022/08/15 00:25:17;;;;;;;;;21.50;21.00;;;;;22.93;70.20;100287.81;110532;1264;14435;-48
2022/08/15 00:27:44;;;;;;;;;30.00;27.00;;;;;22.95;70.06;100288.79;110474;1264;14692;-47
2022/08/15 00:30:11;;;;;;;;;25.00;24.00;;;;;22.81;70.57;100288.61;110561;1264;13291;-49
2022/08/15 00:32:38;;;;;;;;;28.67;25.00;;;;;22.93;70.24;100286.72;110423;1264;14570;-46
2022/08/15 00:35:35;;;;;;;;;31.33;26.33;;;;;22.80;70.46;100288.60;110419;1264;13735;-52
2022/08/15 00:37:55;;;;;;;;;33.33;28.00;;;;;22.66;70.93;100287.29;110512;1265;14929;-48
2022/08/15 00:40:22;;;;;;;;;26.00;22.33;;;;;22.62;71.18;100291.25;110516;1264;13953;-49
2022/08/15 00:42:50;;;;;;;;;23.67;21.33;;;;;22.98;70.28;100287.67;110464;1265;14782;-49
2022/08/15 00:45:17;;;;;;;;;25.00;23.67;;;;;22.98;69.97;100286.83;110529;1264;16792;-49
2022/08/15 00:48:41;;;;;;;;;24.50;22.00;;;;;23.14;69.41;100282.79;110538;1264;15303;-50
2022/08/15 00:50:32;;;;;;;;;28.33;25.00;;;;;22.81;70.11;100290.25;110530;1265;15435;-47
2022/08/15 00:52:59;;;;;;;;;26.00;25.33;;;;;22.74;70.80;100292.23;110528;1264;15125;-47
2022/08/15 00:55:28;;;;;;;;;27.33;24.00;;;;;22.84;70.51;100293.47;110507;1264;14266;-48
2022/08/15 00:57:55;;;;;;;;;27.00;23.67;;;;;23.04;69.69;100287.74;110482;1264;13262;-48
2022/08/15 01:00:23;;;;;;;;;28.00;25.00;;;;;22.88;70.04;100283.90;110562;1264;13189;-48
2022/08/15 01:02:50;;;;;;;;;29.67;24.33;;;;;22.73;70.29;100284.42;110515;1264;15008;-48
2022/08/15 01:05:17;;;;;;;;;27.50;25.50;;;;;22.96;69.85;100276.27;110468;1264;13101;-47
2022/08/15 01:07:44;;;;;;;;;26.00;25.00;;;;;22.94;69.53;100275.83;110523;1264;14680;-48
2022/08/15 01:10:12;;;;;;;;;26.00;25.00;;;;;22.45;70.86;100280.35;110525;1264;13729;-49
2022/08/15 01:12:39;;;;;;;;;24.33;22.33;;;;;22.17;71.97;100285.15;110525;1264;15383;-50
2022/08/15 01:15:08;;;;;;;;;32.33;26.67;;;;;22.24;72.19;100280.98;110553;1263;13203;-47
2022/08/15 01:17:35;;;;;;;;;30.50;25.50;;;;;22.28;72.05;100273.57;110553;1264;14228;-50
2022/08/15 01:20:02;;;;;;;;;30.00;25.00;;;;;22.10;72.53;100282.53;110422;1264;14755;-48
2022/08/15 01:22:29;;;;;;;;;36.00;25.00;;;;;22.13;72.78;100283.45;110514;1265;15398;-48
2022/08/15 01:24:57;;;;;;;;;24.33;23.33;;;;;22.18;72.66;100280.67;110548;1264;15663;-54
2022/08/15 01:27:24;;;;;;;;;31.00;27.50;;;;;22.28;72.27;100282.73;110567;1264;13181;-48
2022/08/15 01:29:51;;;;;;;;;29.67;26.00;;;;;22.12;72.65;100285.54;110481;1264;14921;-48
2022/08/15 01:32:19;;;;;;;;;26.67;26.67;;;;;21.98;73.37;100285.77;110530;1265;14652;-48
2022/08/15 01:34:47;;;;;;;;;31.00;25.00;;;;;22.11;73.06;100280.48;110556;1264;14538;-48
2022/08/15 01:37:14;;;;;;;;;33.67;28.33;;;;;22.06;73.13;100279.45;110503;1264;15501;-48
2022/08/15 01:39:41;;;;;;;;;31.67;28.00;;;;;22.10;73.10;100275.42;110534;1265;14962;-49
2022/08/15 01:42:09;;;;;;;;;30.00;27.00;;;;;22.32;72.33;100269.36;110534;1265;13091;-48
2022/08/15 01:44:36;;;;;;;;;30.00;25.67;;;;;22.43;71.68;100265.15;110497;1263;14299;-48
2022/08/15 01:47:03;;;;;;;;;32.00;28.00;;;;;22.46;71.39;100257.73;110531;1265;14749;-48
2022/08/15 01:49:30;;;;;;;;;33.50;28.50;;;;;22.26;71.77;100255.89;110514;1264;14254;-49
2022/08/15 01:51:58;;;;;;;;;24.00;23.33;;;;;22.20;72.08;100251.05;110544;1264;15361;-48
2022/08/15 01:54:25;;;;;;;;;26.00;23.67;;;;;22.36;71.69;100251.03;110591;1264;13483;-48
2022/08/15 01:56:52;;;;;;;;;29.00;26.00;;;;;22.31;71.71;100246.84;110520;1264;14527;-48
2022/08/15 01:59:20;;;;;;;;;28.67;24.33;;;;;22.48;71.30;100242.63;110374;1263;14692;-49
2022/08/15 02:01:47;;;;;;;;;33.33;29.00;;;;;22.66;70.64;100236.69;110532;1264;14486;-48
2022/08/15 02:04:14;;;;;;;;;28.33;25.00;;;;;22.74;70.26;100231.95;110542;1264;15009;-48
2022/08/15 02:06:41;;;;;;;;;32.00;28.67;;;;;22.87;69.60;100226.83;110548;1265;16355;-52
2022/08/15 02:09:08;;;;;;;;;26.00;24.00;;;;;22.84;69.28;100228.34;110573;1264;13051;-48
2022/08/15 02:11:36;;;;;;;;;30.00;28.00;;;;;22.83;69.34;100228.09;110522;1264;15116;-47
2022/08/15 02:14:03;;;;;;;;;29.50;25.00;;;;;22.61;69.68;100228.59;110516;1264;14609;-49
2022/08/15 02:16:31;;;;;;;;;24.67;21.33;;;;;22.67;69.71;100222.33;110546;1264;14881;-48
2022/08/15 02:18:59;;;;;;;;;29.33;27.33;;;;;22.78;69.34;100216.79;110533;1264;16204;-48
2022/08/15 02:21:26;;;;;;;;;26.00;25.00;;;;;22.58;69.54;100215.92;110548;1264;13100;-47
2022/08/15 02:23:53;;;;;;;;;24.50;22.00;;;;;22.46;69.92;100219.50;110511;1264;14156;-50
2022/08/15 02:26:20;;;;;;;;;29.50;24.00;;;;;22.47;69.90;100219.77;110526;1265;14767;-47
2022/08/15 02:28:48;;;;;;;;;37.33;28.00;;;;;22.35;70.10;100223.71;110526;1264;14315;-48
2022/08/15 02:31:16;;;;;;;;;25.00;21.00;;;;;22.33;70.25;100221.52;110521;1265;15083;-49
2022/08/15 02:33:43;;;;;;;;;28.33;25.00;;;;;22.24;70.43;100222.85;110576;1264;23200;-48
2022/08/15 02:36:13;;;;;;;;;25.50;23.00;;;;;22.19;70.70;100221.81;110586;1264;11406;-48
2022/08/15 02:38:41;;;;;;;;;25.67;24.00;;;;;22.21;70.72;100222.60;110531;1264;14740;-49
2022/08/15 02:41:08;;;;;;;;;25.67;24.00;;;;;22.19;70.83;100225.08;110512;1264;14507;-48
2022/08/15 02:43:35;;;;;;;;;26.00;24.50;;;;;22.14;71.17;100230.92;110516;1264;14839;-47
2022/08/15 02:46:02;;;;;;;;;29.67;23.00;;;;;22.08;71.45;100230.61;110516;1264;14726;-48
2022/08/15 02:48:30;;;;;;;;;31.67;27.00;;;;;21.93;72.34;100223.80;110569;1263;13161;-49
2022/08/15 02:50:58;;;;;;;;;25.67;23.00;;;;;21.97;72.57;100224.16;110542;1264;14843;-48
2022/08/15 02:53:26;;;;;;;;;28.00;25.00;;;;;22.13;72.27;100229.05;110511;1264;14048;-48
2022/08/15 02:55:53;;;;;;;;;31.33;29.33;;;;;22.21;71.79;100231.06;110501;1265;14516;-51
2022/08/15 02:58:21;;;;;;;;;29.67;25.00;;;;;22.06;72.21;100231.59;110514;1265;14568;-48
2022/08/15 03:00:48;;;;;;;;;27.67;24.33;;;;;22.10;72.23;100231.94;110517;1264;15219;-46
2022/08/15 03:03:15;;;;;;;;;27.00;25.33;;;;;22.04;72.43;100226.50;110529;1265;13134;-50
2022/08/15 03:05:43;;;;;;;;;26.67;23.67;;;;;22.21;72.20;100222.63;110476;1264;14841;-50
2022/08/15 03:08:10;;;;;;;;;29.00;24.33;;;;;22.39;71.69;100219.46;110499;1264;13489;-49
2022/08/15 03:10:38;;;;;;;;;28.33;25.00;;;;;22.39;71.71;100217.45;110504;1264;14696;-50
2022/08/15 03:13:05;;;;;;;;;30.00;24.67;;;;;22.49;71.41;100213.58;110536;1264;14592;-47
2022/08/15 03:15:32;;;;;;;;;27.00;24.67;;;;;22.45;71.60;100204.81;110569;1265;13283;-48
2022/08/15 03:17:59;;;;;;;;;28.33;26.33;;;;;22.70;71.07;100194.81;110495;1264;14784;-49
2022/08/15 03:20:27;;;;;;;;;30.33;28.33;;;;;23.03;69.95;100191.61;110528;1264;12617;-49
2022/08/15 03:22:54;;;;;;;;;29.67;27.00;;;;;23.24;69.19;100187.84;110548;1265;14582;-49
2022/08/15 03:25:24;;;;;;;;;26.33;25.00;;;;;23.22;69.23;100187.94;110542;1264;14603;-47
2022/08/15 03:27:51;;;;;;;;;29.67;25.67;;;;;22.90;70.27;100187.69;110539;1265;14354;-47
2022/08/15 03:30:18;;;;;;;;;36.67;34.00;;;;;22.76;70.82;100192.06;110577;1265;13561;-49
2022/08/15 03:32:45;;;;;;;;;34.33;32.67;;;;;22.55;71.46;100195.45;110512;1264;14309;-49
2022/08/15 03:35:13;;;;;;;;;40.00;35.50;;;;;22.56;71.71;100194.32;110522;1264;14514;-48
2022/08/15 03:37:40;;;;;;;;;33.67;29.67;;;;;22.52;71.83;100193.00;110549;1264;14959;-48
2022/08/15 03:40:07;;;;;;;;;39.33;30.67;;;;;22.59;71.70;100193.16;110529;1265;14539;-49
2022/08/15 03:42:35;;;;;;;;;36.33;31.33;;;;;22.54;71.85;100194.32;110573;1265;13278;-48
2022/08/15 03:45:03;;;;;;;;;33.33;30.00;;;;;22.54;71.79;100196.70;110498;1265;14730;-49
2022/08/15 03:47:30;;;;;;;;;29.33;25.00;;;;;22.42;72.22;100203.17;110528;1264;15173;-48
2022/08/15 03:49:59;;;;;;;;;27.67;26.00;;;;;22.34;72.62;100208.27;110485;1264;13956;-48
2022/08/15 03:52:27;;;;;;;;;32.67;29.67;;;;;22.24;73.20;100208.27;110609;1264;14580;-49
2022/08/15 03:54:54;;;;;;;;;33.50;29.00;;;;;22.40;72.92;100205.31;110531;1264;13976;-46
2022/08/15 03:57:23;;;;;;;;;31.33;29.33;;;;;22.47;72.74;100196.57;110573;1265;18068;-50
2022/08/15 03:59:52;;;;;;;;;31.67;28.67;;;;;22.51;72.62;100198.91;110520;1264;14743;-49
2022/08/15 04:02:19;;;;;;;;;25.33;24.33;;;;;22.39;72.98;100197.41;110514;1263;14863;-49
2022/08/15 04:04:46;;;;;;;;;30.00;29.00;;;;;22.41;72.98;100194.98;110508;1265;15642;-48
2022/08/15 04:07:14;;;;;;;;;30.00;28.33;;;;;22.32;73.09;100200.95;110526;1265;14513;-47
2022/08/15 04:09:41;;;;;;;;;31.67;26.00;;;;;22.25;73.14;100204.79;110536;1264;14101;-50
2022/08/15 04:12:08;;;;;;;;;37.00;29.67;;;;;22.05;73.96;100208.23;110539;1265;13275;-49
2022/08/15 04:14:36;;;;;;;;;29.33;27.00;;;;;22.03;74.34;100206.52;110490;1263;18189;-48
2022/08/15 04:17:04;;;;;;;;;29.67;27.33;;;;;21.99;74.43;100207.59;110484;1263;14421;-49
2022/08/15 04:19:31;;;;;;;;;33.00;30.00;;;;;22.05;74.57;100212.73;110499;1264;14147;-49
2022/08/15 04:21:59;;;;;;;;;32.67;27.00;;;;;22.17;74.18;100210.13;110515;1265;14947;-48
2022/08/15 04:24:26;;;;;;;;;33.00;29.33;;;;;22.13;74.27;100203.15;110550;1264;13265;-48
2022/08/15 04:26:53;;;;;;;;;31.33;26.33;;;;;22.23;74.25;100198.45;110510;1265;13849;-49
2022/08/15 04:29:20;;;;;;;;;34.50;31.00;;;;;22.52;73.46;100192.32;110503;1265;15412;-48
2022/08/15 04:31:48;;;;;;;;;32.00;30.67;;;;;22.87;72.03;100189.48;110492;1265;14247;-48
2022/08/15 04:34:15;;;;;;;;;31.00;29.00;;;;;22.93;71.72;100192.13;110486;1264;15919;-49
2022/08/15 04:36:43;;;;;;;;;34.00;30.00;;;;;22.78;71.94;100198.54;110520;1264;14850;-52
2022/08/15 04:39:10;;;;;;;;;32.67;31.33;;;;;22.60;72.66;100203.03;110524;1264;13329;-49
2022/08/15 04:41:38;;;;;;;;;38.50;31.00;;;;;22.54;72.78;100203.08;110509;1264;14928;-50
2022/08/15 04:44:05;;;;;;;;;36.33;32.33;;;;;22.27;73.78;100206.70;110468;1265;14329;-49
2022/08/15 04:46:32;;;;;;;;;34.50;30.00;;;;;22.24;74.23;100210.92;110504;1264;14865;-47
2022/08/15 04:48:59;;;;;;;;;39.33;34.00;;;;;22.31;74.30;100206.34;110516;1265;14113;-51
2022/08/15 04:51:27;;;;;;;;;37.33;32.00;;;;;22.46;73.86;100202.88;110464;1264;13224;-47
2022/08/15 04:53:55;;;;;;;;;36.50;30.00;;;;;22.15;74.74;100205.27;110508;1264;17516;-48
2022/08/15 04:56:22;;;;;;;;;36.67;33.00;;;;;22.06;75.60;100198.26;110510;1264;14398;-49
2022/08/15 04:58:49;;;;;;;;;40.33;34.67;;;;;22.43;75.08;100198.54;110481;1265;13318;-48
2022/08/15 05:01:16;;;;;;;;;41.67;31.67;;;;;22.35;74.60;100204.14;110473;1265;14281;-48
2022/08/15 05:03:44;;;;;;;;;33.33;31.00;;;;;22.20;75.23;100202.08;110551;1264;13326;-50
2022/08/15 05:06:12;;;;;;;;;33.33;32.00;;;;;22.59;74.23;100198.45;110557;1265;13271;-48
2022/08/15 05:08:39;;;;;;;;;42.33;33.67;;;;;22.79;73.32;100199.77;110513;1265;14167;-48
2022/08/15 05:11:06;;;;;;;;;37.67;34.33;;;;;22.69;73.56;100197.54;110532;1264;13997;-50
2022/08/15 05:13:35;;;;;;;;;39.00;35.00;;;;;22.76;73.56;100201.34;110502;1264;14441;-48
2022/08/15 05:16:04;;;;;;;;;41.33;37.33;;;;;22.67;73.50;100198.56;109468;1265;1260882;-49
2022/08/15 05:18:31;;;;;;;;;43.67;37.67;;;;;22.40;74.44;100200.91;110536;1263;11727;-48
2022/08/15 05:20:59;;;;;;;;;43.00;38.33;;;;;22.36;74.95;100197.28;110543;1265;14752;-48
2022/08/15 05:23:26;;;;;;;;;37.67;30.00;;;;;22.46;74.63;100200.77;110472;1264;14814;-49
2022/08/15 05:25:53;;;;;;;;;55.00;43.50;;;;;22.54;74.44;100193.98;110500;1264;14842;-49
2022/08/15 05:28:20;;;;;;;;;53.67;42.00;;;;;22.86;73.63;100192.21;110484;1265;14541;-48
2022/08/15 05:30:48;;;;;;;;;45.67;38.33;;;;;22.86;73.27;100191.98;110504;1264;13964;-45
2022/08/15 05:33:15;;;;;;;;;38.00;37.00;;;;;22.82;73.38;100194.16;110518;1265;10514;-49
2022/08/15 05:35:42;;;;;;;;;42.00;36.33;;;;;22.66;73.65;100199.16;110530;1265;14412;-48
2022/08/15 05:38:10;;;;;;;;;38.00;34.00;;;;;22.60;74.22;100200.94;110515;1264;13245;-49
2022/08/15 05:40:37;;;;;;;;;39.33;35.33;;;;;22.73;73.83;100197.00;110494;1264;16717;-47
2022/08/15 05:43:05;;;;;;;;;41.33;36.00;;;;;22.68;73.99;100195.60;110444;1264;13329;-48
2022/08/15 05:45:32;;;;;;;;;39.67;36.67;;;;;22.73;74.00;100191.30;110508;1265;13191;-48
2022/08/15 05:48:00;;;;;;;;;43.50;35.50;;;;;22.67;74.14;100191.19;110481;1264;18055;-48
2022/08/15 05:50:27;;;;;;;;;33.33;30.33;;;;;22.71;74.31;100191.58;110483;1263;14268;-53
2022/08/15 05:52:55;;;;;;;;;39.33;37.00;;;;;22.73;74.20;100193.36;110549;1265;14231;-48
2022/08/15 05:55:23;;;;;;;;;44.00;38.00;;;;;22.77;74.25;100188.11;110506;1264;14391;-52
2022/08/15 05:57:50;;;;;;;;;44.00;38.67;;;;;22.87;73.95;100185.70;110521;1264;13918;-50
2022/08/15 06:00:17;;;;;;;;;40.67;38.00;;;;;22.93;73.90;100182.32;110500;1263;13088;-49
2022/08/15 06:02:44;;;;;;;;;41.00;35.33;;;;;23.13;73.22;100180.50;110493;1264;13341;-48
2022/08/15 06:05:12;;;;;;;;;43.00;36.33;;;;;23.25;72.91;100180.79;110485;1264;13197;-47
2022/08/15 06:07:39;;;;;;;;;42.00;36.00;;;;;23.27;72.75;100179.32;110517;1264;13826;-47
2022/08/15 06:10:06;;;;;;;;;42.00;36.33;;;;;23.36;72.53;100176.77;110496;1264;14326;-48
2022/08/15 06:12:34;;;;;;;;;38.33;33.67;;;;;23.35;72.55;100176.47;110561;1264;13248;-48
2022/08/15 06:15:02;;;;;;;;;41.67;36.00;;;;;23.47;72.21;100175.53;110516;1264;14374;-49
2022/08/15 06:17:29;;;;;;;;;38.67;31.33;;;;;23.55;72.09;100175.61;110510;1265;13497;-49
2022/08/15 06:19:57;;;;;;;;;42.33;35.67;;;;;23.78;71.69;100172.84;110529;1265;14368;-48
2022/08/15 06:22:24;;;;;;;;;41.50;35.00;;;;;23.75;71.40;100177.80;110536;1264;13636;-48
2022/08/15 06:24:52;;;;;;;;;45.67;38.67;;;;;23.63;71.60;100179.73;110533;1264;14818;-48
2022/08/15 06:27:19;;;;;;;;;44.33;37.00;;;;;23.61;71.64;100179.08;110544;1264;13413;-48
2022/08/15 06:29:46;;;;;;;;;46.67;37.00;;;;;23.67;71.67;100181.47;110497;1264;14115;-49
2022/08/15 06:32:14;;;;;;;;;40.00;35.67;;;;;23.73;71.62;100180.34;110503;1265;14190;-55
2022/08/15 06:34:42;;;;;;;;;45.33;37.33;;;;;23.67;71.52;100181.11;110463;1264;14849;-52
2022/08/15 06:37:09;;;;;;;;;40.33;36.00;;;;;23.54;71.93;100177.55;110442;1264;15134;-48
2022/08/15 06:39:36;;;;;;;;;44.67;37.33;;;;;23.63;71.98;100177.20;110585;1264;13183;-48
2022/08/15 06:42:04;;;;;;;;;40.33;35.67;;;;;23.93;71.20;100173.71;110488;1264;14725;-49
2022/08/15 06:44:33;;;;;;;;;38.00;34.67;;;;;24.15;70.74;100175.55;110362;1264;14493;-47
2022/08/15 06:47:03;;;;;;;;;40.00;37.00;;;;;24.32;70.34;100171.70;110445;1265;13777;-48
2022/08/15 06:49:30;;;;;;;;;49.00;39.33;;;;;24.23;70.28;100172.80;110470;1264;13953;-49
2022/08/15 06:51:58;;;;;;;;;45.00;39.00;;;;;24.22;70.47;100168.08;110500;1265;14396;-49
2022/08/15 06:54:25;;;;;;;;;43.67;37.67;;;;;24.35;70.28;100160.14;110558;1265;13251;-46
2022/08/15 06:56:52;;;;;;;;;43.33;37.00;;;;;24.59;69.79;100157.13;110453;1264;13899;-50
2022/08/15 06:59:21;;;;;;;;;42.67;37.67;;;;;24.76;69.06;100166.56;110378;1265;14625;-47
2022/08/15 07:01:48;;;;;;;;;42.67;36.33;;;;;24.81;69.06;100169.28;110505;1264;14121;-48
2022/08/15 07:04:15;;;;;;;;;41.33;39.00;;;;;24.96;69.24;100170.35;110531;1264;14423;-50
2022/08/15 07:06:42;;;;;;;;;46.67;38.00;;;;;25.12;68.84;100172.49;110566;1264;13095;-49
2022/08/15 07:09:10;;;;;;;;;45.67;38.00;;;;;25.24;68.61;100174.29;110554;1264;13888;-48
2022/08/15 07:11:38;;;;;;;;;43.00;37.50;;;;;25.25;68.29;100178.66;110519;1264;14253;-48
2022/08/15 07:14:06;;;;;;;;;41.00;35.67;;;;;25.21;68.07;100179.83;110502;1265;14216;-47
2022/08/15 07:16:33;;;;;;;;;42.50;36.00;;;;;25.22;68.04;100182.89;110531;1265;14482;-48
2022/08/15 07:19:01;;;;;;;;;36.33;33.00;;;;;25.55;67.37;100178.14;110455;1264;14426;-50
2022/08/15 07:21:28;;;;;;;;;37.00;32.00;;;;;25.68;66.63;100177.52;110482;1265;11740;-47
2022/08/15 07:23:55;;;;;;;;;40.00;33.67;;;;;25.68;66.57;100179.20;110355;1265;14316;-51
2022/08/15 07:26:22;;;;;;;;;33.67;32.00;;;;;25.78;66.27;100177.89;110422;1264;14177;-47
2022/08/15 07:28:50;;;;;;;;;33.00;32.00;;;;;25.81;65.92;100179.30;110517;1263;15057;-49
2022/08/15 07:31:17;;;;;;;;;38.00;32.67;;;;;25.84;65.76;100179.44;110454;1263;14335;-48
2022/08/15 07:33:45;;;;;;;;;36.00;33.67;;;;;25.75;65.73;100180.39;110474;1265;10451;-50
2022/08/15 07:36:12;;;;;;;;;40.50;35.00;;;;;25.54;65.96;100177.33;110522;1264;18143;-50
2022/08/15 07:38:39;;;;;;;;;38.33;34.67;;;;;25.47;66.24;100170.29;110425;1264;14985;-48
2022/08/15 07:41:06;;;;;;;;;41.00;35.33;;;;;25.54;66.05;100173.91;110442;1264;14708;-48
2022/08/15 07:43:35;;;;;;;;;38.00;35.00;;;;;25.56;66.00;100177.56;110484;1265;14765;-47
2022/08/15 07:46:02;;;;;;;;;36.00;33.00;;;;;25.53;66.12;100178.27;110399;1264;14896;-48
2022/08/15 07:48:30;;;;;;;;;41.33;35.67;;;;;25.57;66.16;100177.19;110541;1264;13953;-48
2022/08/15 07:50:57;;;;;;;;;40.33;36.67;;;;;25.62;66.18;100173.64;110461;1264;14922;-48
2022/08/15 07:53:25;;;;;;;;;37.67;35.67;;;;;25.71;66.22;100179.30;110502;1265;14680;-49
2022/08/15 07:55:52;;;;;;;;;44.00;38.00;;;;;25.74;66.20;100180.08;110495;1265;14876;-47
2022/08/15 07:58:20;;;;;;;;;42.33;38.00;;;;;25.73;66.31;100178.48;110470;1264;16754;-50
2022/08/15 08:00:48;;;;;;;;;46.67;39.00;;;;;25.83;66.20;100179.58;110466;1264;18206;-53
2022/08/15 08:03:15;;;;;;;;;42.67;37.00;;;;;25.91;66.05;100180.14;110510;1264;13391;-50
2022/08/15 08:05:43;;;;;;;;;46.33;37.33;;;;;25.87;66.29;100181.62;110514;1262;13701;-49
2022/08/15 08:08:11;;;;;;;;;42.00;37.50;;;;;25.84;66.33;100181.22;110487;1264;14876;-46
2022/08/15 08:10:38;;;;;;;;;43.33;37.00;;;;;25.99;65.98;100179.43;110519;1264;15487;-47
2022/08/15 08:13:05;;;;;;;;;47.00;38.00;;;;;26.01;65.77;100174.52;110483;1265;13560;-47
2022/08/15 08:15:32;;;;;;;;;38.33;36.00;;;;;26.02;65.90;100174.48;110529;1265;13157;-50
2022/08/15 08:18:00;;;;;;;;;40.50;35.00;;;;;26.08;65.79;100173.20;110455;1265;14921;-50
2022/08/15 08:20:28;;;;;;;;;39.50;36.00;;;;;26.18;65.71;100176.30;110556;1264;15384;-49
2022/08/15 08:22:55;;;;;;;;;41.50;32.50;;;;;26.17;65.72;100176.02;110390;1264;14839;-52
2022/08/15 08:25:23;;;;;;;;;42.67;37.00;;;;;26.21;65.68;100173.77;110478;1264;14819;-48
2022/08/15 08:27:51;;;;;;;;;43.50;37.00;;;;;26.26;65.83;100174.03;110498;1265;15263;-49
2022/08/15 08:30:19;;;;;;;;;39.00;36.00;;;;;26.25;65.80;100174.51;110462;1262;11142;-49
2022/08/15 08:32:46;;;;;;;;;41.00;36.00;;;;;26.32;65.62;100180.29;110491;1265;14660;-48
2022/08/15 08:35:14;;;;;;;;;43.50;36.00;;;;;26.27;65.52;100183.48;110439;1265;14515;-48
2022/08/15 08:37:42;;;;;;;;;38.00;35.67;;;;;26.29;65.60;100181.55;110504;1264;14800;-47
2022/08/15 08:42:54;;;;;;;;;42.50;36.00;;;;;26.41;65.36;100179.48;110442;1264;13223;-48
2022/08/15 08:45:21;;;;;;;;;42.00;37.00;;;;;26.37;65.50;100174.48;110520;1263;13249;-49
2022/08/15 08:47:49;;;;;;;;;41.00;37.33;;;;;26.32;65.60;100177.27;110364;1264;15091;-48
2022/08/15 08:50:16;;;;;;;;;36.33;33.67;;;;;26.39;65.62;100170.80;110209;1264;14532;-48
2022/08/15 08:52:44;;;;;;;;;43.33;37.00;;;;;26.42;65.49;100170.80;110420;1265;14060;-48
2022/08/15 08:55:12;;;;;;;;;42.50;37.00;;;;;26.38;65.35;100176.95;110544;1264;14356;-47
2022/08/15 08:57:39;;;;;;;;;42.33;37.67;;;;;26.40;65.24;100178.01;110578;1265;13355;-48
2022/08/15 09:00:06;;;;;;;;;45.33;38.00;;;;;26.31;65.40;100179.63;110530;1264;14867;-49
2022/08/15 09:02:34;;;;;;;;;43.00;37.67;;;;;26.22;65.62;100178.09;110540;1264;16834;-47
2022/08/15 09:05:02;;;;;;;;;42.50;38.00;;;;;26.29;65.67;100177.54;110549;1264;14452;-49
2022/08/15 09:07:30;;;;;;;;;49.33;39.00;;;;;26.34;65.33;100174.79;110526;1264;14226;-49
2022/08/15 09:09:57;;;;;;;;;49.67;39.33;;;;;26.36;65.02;100170.95;110521;1264;13759;-45
2022/08/15 09:15:09;;;;;;;;;52.67;41.00;;;;;26.45;64.91;100167.55;110477;1265;14830;-47
2022/08/15 09:17:36;;;;;;;;;46.00;39.00;;;;;26.47;65.10;100168.45;110511;1264;14768;-49
2022/08/15 09:20:05;;;;;;;;;44.67;40.00;;;;;26.55;64.98;100166.20;110533;1265;15299;-47
2022/08/15 09:22:32;;;;;;;;;49.33;40.00;;;;;26.53;64.87;100163.54;110503;1264;14258;-49
2022/08/15 09:25:00;;;;;;;;;43.33;38.00;;;;;26.55;64.65;100166.09;110440;1264;14711;-48
2022/08/15 09:27:27;;;;;;;;;45.50;39.50;;;;;26.49;64.66;100163.34;110495;1264;14057;-48
2022/08/15 09:29:54;;;;;;;;;48.33;40.00;;;;;26.46;64.91;100166.87;110279;1264;14802;-48
2022/08/15 09:32:21;;;;;;;;;49.50;40.00;;;;;26.54;64.38;100162.79;110270;1265;14346;-49
2022/08/15 09:34:49;;;;;;;;;43.33;38.00;;;;;26.64;63.92;100155.66;110399;1264;15006;-49
2022/08/15 09:37:16;;;;;;;;;47.33;38.00;;;;;26.64;63.74;100160.23;110452;1264;14945;-49
2022/08/15 09:39:43;;;;;;;;;42.67;38.00;;;;;26.75;62.85;100161.40;110474;1264;11313;-49
2022/08/15 09:42:11;;;;;;;;;44.67;37.67;;;;;26.85;62.34;100158.69;110398;1263;15270;-49
2022/08/15 09:44:38;;;;;;;;;44.00;38.00;;;;;26.80;62.20;100151.06;110459;1264;14639;-44
2022/08/15 09:47:08;;;;;;;;;82.33;65.00;;;;;26.81;62.34;100145.16;110319;1264;14840;-48
2022/08/15 09:49:35;;;;;;;;;104.67;94.67;;;;;26.86;62.57;100150.02;110386;1264;14868;-48
2022/08/15 09:52:02;;;;;;;;;57.00;47.50;;;;;26.91;62.59;100150.87;110333;1264;15291;-50
2022/08/15 09:54:30;;;;;;;;;41.00;36.33;;;;;26.94;62.35;100149.57;110491;1264;11668;-48
2022/08/15 09:56:58;;;;;;;;;36.33;34.00;;;;;26.95;62.44;100149.13;110436;1264;14937;-48
2022/08/15 09:59:26;;;;;;;;;38.00;34.00;;;;;26.92;62.28;100144.90;110404;1262;13552;-48
2022/08/15 10:01:53;;;;;;;;;41.00;36.67;;;;;26.93;62.15;100148.73;110517;1263;13428;-47
2022/08/15 10:04:22;;;;;;;;;38.33;33.67;;;;;26.97;62.30;100151.98;110354;1264;14891;-51
2022/08/15 10:06:49;;;;;;;;;37.00;33.50;;;;;27.00;62.09;100148.85;110367;1264;10409;-49
2022/08/15 10:09:17;;;;;;;;;45.00;36.00;;;;;26.99;62.58;100143.83;110481;1264;12649;-47
2022/08/15 10:11:46;;;;;;;;;37.67;34.00;;;;;27.04;62.85;100141.40;110516;1264;15104;-49
2022/08/15 10:14:14;;;;;;;;;36.00;32.33;;;;;27.04;63.09;100141.45;110507;1263;14505;-48
2022/08/15 10:16:41;;;;;;;;;35.33;33.67;;;;;27.01;63.21;100142.91;110489;1264;15133;-49
2022/08/15 10:19:09;;;;;;;;;39.00;34.67;;;;;26.96;62.96;100145.56;110480;1264;14941;-47
2022/08/15 10:21:37;;;;;;;;;41.33;34.33;;;;;26.87;62.92;100144.80;110542;1264;12788;-48
2022/08/15 10:24:05;;;;;;;;;33.67;31.00;;;;;26.85;62.76;100145.20;110432;1264;12232;-48
2022/08/15 10:26:32;;;;;;;;;35.50;33.00;;;;;26.85;62.53;100143.66;110442;1265;18109;-48
2022/08/15 10:29:00;;;;;;;;;36.00;33.67;;;;;26.87;62.63;100139.70;110507;1264;15134;-48
2022/08/15 10:31:27;;;;;;;;;35.50;33.00;;;;;26.92;62.73;100139.95;110417;1263;15127;-49
2022/08/15 10:33:54;;;;;;;;;42.00;35.00;;;;;26.93;63.04;100142.95;110509;1264;14923;-50
2022/08/15 10:36:22;;;;;;;;;39.67;34.00;;;;;26.88;63.40;100138.69;110461;1265;10391;-49
2022/08/15 10:38:50;;;;;;;;;36.00;33.00;;;;;26.88;63.41;100140.04;110494;1264;14520;-48
2022/08/15 10:41:17;;;;;;;;;39.00;34.67;;;;;26.84;63.30;100141.00;110464;1264;14651;-48
2022/08/15 10:43:45;;;;;;;;;35.67;32.33;;;;;26.81;63.18;100139.17;110503;1264;15108;-49
2022/08/15 10:46:12;;;;;;;;;36.00;33.00;;;;;26.78;63.39;100140.01;110494;1265;13879;-49
2022/08/15 10:48:39;;;;;;;;;36.33;32.00;;;;;26.79;63.12;100140.08;110545;1264;13193;-48
2022/08/15 10:51:06;;;;;;;;;35.00;34.00;;;;;26.81;63.02;100141.24;110520;1264;15000;-49
2022/08/15 10:53:34;;;;;;;;;39.00;33.67;;;;;26.78;62.79;100142.37;110449;1264;14947;-47
2022/08/15 10:56:01;;;;;;;;;34.67;31.33;;;;;26.79;63.13;100140.38;110462;1264;14733;-47
2022/08/15 10:58:32;;;;;;;;;37.33;33.00;;;;;26.77;63.17;100141.68;110234;1265;14564;-48
2022/08/15 11:01:04;;;;;;;;;35.50;32.50;;;;;26.81;63.05;100140.22;110282;1264;14747;-46
2022/08/15 11:03:35;;;;;;;;;34.00;32.00;;;;;26.82;63.12;100142.02;110288;1265;11256;-47
2022/08/15 11:06:02;;;;;;;;;33.00;31.00;;;;;26.86;62.72;100138.59;110325;1265;14911;-47
2022/08/15 11:08:30;;;;;;;;;41.50;33.00;;;;;26.82;62.49;100138.10;110475;1264;14967;-45